Etusivu
METAR-TAF:

METAR-TAF

Lentoasemat :

Notodden, Norja

Leveyspiiri: 59-34N, Pituuspiiri: 009-13E, korkeus merenpinnasta: 19 m

Tämänhetkinen sää

Tämä raportti tehtiin 1 tunti ja 9 minuuttia sitten, kello 13.50 UTC
Tuuli 3 kn eri suunnista
Lämpötila 4°C
Kosteus 65%
Ilmanpaine 999 hPa
Näkyvyys 10 km tai enemmän
Hajanaisia pilviä 4500 ft:n korkeudessa

METAR: ENNO 241350Z VRB03KT 9999 SCT045 04/M02 Q0999

Aika: 15:59 (14:59 UTC)

Sääennuste

Tämä raportti tehtiin 3 tuntia ja 59 minuuttia sitten, kello 11.00 UTC
Ennuste voimassa 24. päivästä klo 12 UTC - 24. päivään klo 18 UTC
Tuuli 8 kn idästä/kaakosta
Näkyvyys 10 km tai enemmän
Hajanaisia pilviä 4000 ft:n korkeudessa

TAF: ENNO 241100Z 2412/2418 11008KT 9999 SCT040

Säähavainnot ja -ennusteet yli 4000 lentoasemalta (METAR- ja TAF-raportit).

Käytössä olevat sääasemat on merkitty karttaan keltaisilla ja punaisilla pisteillä.

Aseta hiiri pisteen päälle nähdäksesi sääaseman nimen.

Klikkaa sitten nähdäksesi säähavainnot ja -ennusteet.

Kartan vaihtaminen: klikkaa mustalla rastilla varustettuja vihreitä pisteitä, niin voit zoomata sisään; viivalla varustettua vihreää pistettä, niin voit zoomata ulos tai vihreitä nuolia, niin pääset viereisille kartoille.


METAR-TAF: